Strona główna
METAR-TAF:

METAR-TAF

Lotnisko :

RAF

Boulmer, Anglia

Szerokość geograficzna: 55-25-19N, Długość geograficzna: 1-36-12W, wysokość: 24 m

Aktualna obserwacja pogody

Raport powstał 1 godzina i 2 minut temu, godzina 02:50 UTC
Wiatr 16 kt od północ
Temperatura 4°C
Wilgotność 65%
Ciśnienie 1043 hPa
Widzialność 10 km lub więcej

METAR: EGQM 290250Z AUTO 01016KT 9999 FEW031/// BKN050/// 04/M02 Q1043 RERA

czas: 04:52 (03:52 UTC)


TAF: brakujący

Obserwacja i prognoza pogody dla ponad 4000 lotnisk (raport METAR i TAF).

Dostępne stacje oznaczono żółtymi i czerwonymi punktami na mapie.

Najedź kursorem aby zobaczyć nazwę stacji.

Kliknij aby zobaczyć obserwacje i prognozy pogody.

Aby zmienić mapę: kliknij na zielony przycisk z czarnym krzyżykiem, aby powiększyć; na zielony przycisk z myślnikiem, aby pomniejszyć; na zielone strzałki, aby przejść do map sąsiednich.


METAR-TAF: